KBKD/BKD METAR and TAF weather

Enter ICAO airport designator
Station Type Date Time Source
KBKD METAR 2020/01/20 16:15 UTC NOAA

KBKD 201615Z AUTO 25006KT 7SM CLR 09/M04 A3059 RMK AO2 T00871041


Station Type Date Time Source
KBKD Decoded METAR 2020/01/20 16:15 UTC NOAA

Station name not available
Jan 20, 2020 - 11:15 AM EST / 2020.01.20 1615 UTC
Wind: from the WSW (250 degrees) at 7 MPH (6 KT):0
Visibility: 7 mile(s):0
Sky conditions: clear
Temperature: 47.7 F (8.7 C)
Dew Point: 24.6 F (-4.1 C)
Relative Humidity: 40%
Pressure (altimeter): 30.59 in. Hg (1035 hPa)
ob: KBKD 201615Z AUTO 25006KT 7SM CLR 09/M04 A3059 RMK AO2 T00871041
cycle: 16

Station Type Date Time Source
KBKD TAF UTC NOAA

Error!

Example: see airport list